sensor_id;sensor_type;location;lat;lon;timestamp;P1;durP1;ratioP1;P2;durP2;ratioP2
10957;SDS011;5531;42.570;23.676;2023-02-24T00:00:24;14.90;;;9.52;;
10957;SDS011;5531;42.570;23.676;2023-02-24T00:03:02;11.75;;;9.00;;
10957;SDS011;5531;42.570;23.676;2023-02-24T00:05:35;11.70;;;9.40;;
10957;SDS011;5531;42.570;23.676;2023-02-24T00:08:11;15.60;;;9.48;;
10957;SDS011;5531;42.570;23.676;2023-02-24T00:10:40;11.63;;;9.68;;
10957;SDS011;5531;42.570;23.676;2023-02-24T00:13:09;15.63;;;9.98;;
10957;SDS011;5531;42.570;23.676;2023-02-24T00:15:42;20.58;;;9.90;;
10957;SDS011;5531;42.570;23.676;2023-02-24T00:18:12;20.27;;;9.20;;
10957;SDS011;5531;42.570;23.676;2023-02-24T00:20:41;14.55;;;9.10;;
10957;SDS011;5531;42.570;23.676;2023-02-24T00:23:12;12.02;;;9.75;;
10957;SDS011;5531;42.570;23.676;2023-02-24T00:25:42;24.20;;;10.45;;
10957;SDS011;5531;42.570;23.676;2023-02-24T00:28:11;14.00;;;9.07;;
10957;SDS011;5531;42.570;23.676;2023-02-24T00:30:40;13.32;;;8.80;;
10957;SDS011;5531;42.570;23.676;2023-02-24T00:33:09;12.85;;;8.32;;
10957;SDS011;5531;42.570;23.676;2023-02-24T00:35:39;21.83;;;9.48;;
10957;SDS011;5531;42.570;23.676;2023-02-24T00:38:08;21.33;;;10.52;;
10957;SDS011;5531;42.570;23.676;2023-02-24T00:40:40;17.63;;;9.40;;
10957;SDS011;5531;42.570;23.676;2023-02-24T00:43:09;20.10;;;8.80;;
10957;SDS011;5531;42.570;23.676;2023-02-24T00:45:39;24.73;;;8.98;;
10957;SDS011;5531;42.570;23.676;2023-02-24T00:48:08;16.20;;;8.55;;
10957;SDS011;5531;42.570;23.676;2023-02-24T00:50:39;20.80;;;9.55;;
10957;SDS011;5531;42.570;23.676;2023-02-24T00:53:08;17.48;;;8.85;;
10957;SDS011;5531;42.570;23.676;2023-02-24T00:55:40;13.85;;;9.50;;
10957;SDS011;5531;42.570;23.676;2023-02-24T00:58:09;18.35;;;9.15;;
10957;SDS011;5531;42.570;23.676;2023-02-24T01:00:38;15.75;;;9.43;;
10957;SDS011;5531;42.570;23.676;2023-02-24T01:03:08;14.38;;;8.57;;
10957;SDS011;5531;42.570;23.676;2023-02-24T01:05:37;16.90;;;8.45;;
10957;SDS011;5531;42.570;23.676;2023-02-24T01:08:06;12.52;;;8.50;;
10957;SDS011;5531;42.570;23.676;2023-02-24T01:10:35;13.98;;;8.93;;
10957;SDS011;5531;42.570;23.676;2023-02-24T01:13:06;12.98;;;8.30;;
10957;SDS011;5531;42.570;23.676;2023-02-24T01:15:33;16.52;;;7.55;;
10957;SDS011;5531;42.570;23.676;2023-02-24T01:18:02;11.98;;;6.88;;
10957;SDS011;5531;42.570;23.676;2023-02-24T01:20:31;9.38;;;6.85;;
10957;SDS011;5531;42.570;23.676;2023-02-24T01:23:02;9.00;;;6.68;;
10957;SDS011;5531;42.570;23.676;2023-02-24T01:25:31;8.65;;;6.38;;
10957;SDS011;5531;42.570;23.676;2023-02-24T01:28:00;10.00;;;6.25;;
10957;SDS011;5531;42.570;23.676;2023-02-24T01:30:32;7.75;;;6.28;;
10957;SDS011;5531;42.570;23.676;2023-02-24T01:33:02;9.30;;;6.07;;
10957;SDS011;5531;42.570;23.676;2023-02-24T01:35:32;7.32;;;6.47;;
10957;SDS011;5531;42.570;23.676;2023-02-24T01:38:01;7.15;;;6.03;;
10957;SDS011;5531;42.570;23.676;2023-02-24T01:40:30;8.05;;;6.07;;
10957;SDS011;5531;42.570;23.676;2023-02-24T01:42:59;7.65;;;5.90;;
10957;SDS011;5531;42.570;23.676;2023-02-24T01:45:35;7.30;;;5.85;;
10957;SDS011;5531;42.570;23.676;2023-02-24T01:48:06;8.93;;;6.32;;
10957;SDS011;5531;42.570;23.676;2023-02-24T01:50:36;5.95;;;5.35;;
10957;SDS011;5531;42.570;23.676;2023-02-24T01:53:06;6.20;;;4.90;;
10957;SDS011;5531;42.570;23.676;2023-02-24T01:55:37;6.50;;;5.40;;
10957;SDS011;5531;42.570;23.676;2023-02-24T01:58:12;7.20;;;5.18;;
10957;SDS011;5531;42.570;23.676;2023-02-24T02:00:48;5.65;;;4.45;;
10957;SDS011;5531;42.570;23.676;2023-02-24T02:03:22;5.13;;;4.60;;
10957;SDS011;5531;42.570;23.676;2023-02-24T02:05:55;7.18;;;4.78;;
10957;SDS011;5531;42.570;23.676;2023-02-24T02:08:28;6.13;;;4.57;;
10957;SDS011;5531;42.570;23.676;2023-02-24T02:10:57;5.70;;;4.45;;
10957;SDS011;5531;42.570;23.676;2023-02-24T02:13:32;6.10;;;4.57;;
10957;SDS011;5531;42.570;23.676;2023-02-24T02:16:09;5.65;;;4.30;;
10957;SDS011;5531;42.570;23.676;2023-02-24T02:18:54;5.28;;;4.40;;
10957;SDS011;5531;42.570;23.676;2023-02-24T02:21:54;5.15;;;4.45;;
10957;SDS011;5531;42.570;23.676;2023-02-24T02:24:38;6.18;;;4.60;;
10957;SDS011;5531;42.570;23.676;2023-02-24T02:27:23;4.70;;;4.18;;
10957;SDS011;5531;42.570;23.676;2023-02-24T02:36:25;5.40;;;4.43;;
10957;SDS011;5531;42.570;23.676;2023-02-24T02:39:00;6.03;;;4.78;;
10957;SDS011;5531;42.570;23.676;2023-02-24T02:41:39;6.00;;;5.10;;
10957;SDS011;5531;42.570;23.676;2023-02-24T02:44:18;5.80;;;4.45;;
10957;SDS011;5531;42.570;23.676;2023-02-24T02:46:52;6.38;;;4.50;;
10957;SDS011;5531;42.570;23.676;2023-02-24T02:49:28;7.43;;;4.97;;
10957;SDS011;5531;42.570;23.676;2023-02-24T02:52:08;7.05;;;4.60;;
10957;SDS011;5531;42.570;23.676;2023-02-24T02:54:42;5.72;;;4.88;;
10957;SDS011;5531;42.570;23.676;2023-02-24T02:57:16;6.35;;;5.47;;
10957;SDS011;5531;42.570;23.676;2023-02-24T02:59:51;6.47;;;4.97;;
10957;SDS011;5531;42.570;23.676;2023-02-24T03:02:23;6.40;;;5.18;;
10957;SDS011;5531;42.570;23.676;2023-02-24T03:05:02;6.80;;;4.85;;
10957;SDS011;5531;42.570;23.676;2023-02-24T03:07:38;9.25;;;5.28;;
10957;SDS011;5531;42.570;23.676;2023-02-24T03:10:13;6.00;;;5.10;;
10957;SDS011;5531;42.570;23.676;2023-02-24T03:12:47;6.30;;;4.90;;
10957;SDS011;5531;42.570;23.676;2023-02-24T03:15:21;8.10;;;5.40;;
10957;SDS011;5531;42.570;23.676;2023-02-24T03:17:55;6.75;;;5.38;;
10957;SDS011;5531;42.570;23.676;2023-02-24T03:20:35;5.68;;;4.72;;
10957;SDS011;5531;42.570;23.676;2023-02-24T03:23:12;5.45;;;4.68;;
10957;SDS011;5531;42.570;23.676;2023-02-24T03:25:46;6.07;;;4.70;;
10957;SDS011;5531;42.570;23.676;2023-02-24T03:28:25;5.65;;;4.88;;
10957;SDS011;5531;42.570;23.676;2023-02-24T03:31:01;6.53;;;4.60;;
10957;SDS011;5531;42.570;23.676;2023-02-24T03:33:37;7.72;;;4.50;;
10957;SDS011;5531;42.570;23.676;2023-02-24T03:36:09;5.05;;;4.25;;
10957;SDS011;5531;42.570;23.676;2023-02-24T03:38:42;5.35;;;4.25;;
10957;SDS011;5531;42.570;23.676;2023-02-24T03:41:13;4.93;;;4.35;;
10957;SDS011;5531;42.570;23.676;2023-02-24T03:43:43;7.13;;;4.70;;
10957;SDS011;5531;42.570;23.676;2023-02-24T03:46:14;7.78;;;5.00;;
10957;SDS011;5531;42.570;23.676;2023-02-24T03:48:47;6.35;;;4.53;;
10957;SDS011;5531;42.570;23.676;2023-02-24T03:51:21;6.38;;;4.65;;
10957;SDS011;5531;42.570;23.676;2023-02-24T03:53:58;5.85;;;4.55;;
10957;SDS011;5531;42.570;23.676;2023-02-24T03:56:38;6.35;;;4.32;;
10957;SDS011;5531;42.570;23.676;2023-02-24T03:59:17;6.47;;;4.60;;
10957;SDS011;5531;42.570;23.676;2023-02-24T04:01:57;6.35;;;4.28;;
10957;SDS011;5531;42.570;23.676;2023-02-24T04:04:33;6.22;;;4.78;;
10957;SDS011;5531;42.570;23.676;2023-02-24T04:07:07;6.40;;;4.00;;
10957;SDS011;5531;42.570;23.676;2023-02-24T04:09:46;5.75;;;4.43;;
10957;SDS011;5531;42.570;23.676;2023-02-24T04:12:24;6.45;;;4.93;;
10957;SDS011;5531;42.570;23.676;2023-02-24T04:14:57;6.35;;;4.63;;
10957;SDS011;5531;42.570;23.676;2023-02-24T04:17:34;6.80;;;4.60;;
10957;SDS011;5531;42.570;23.676;2023-02-24T04:20:11;7.35;;;4.60;;
10957;SDS011;5531;42.570;23.676;2023-02-24T04:22:44;5.85;;;4.20;;
10957;SDS011;5531;42.570;23.676;2023-02-24T04:25:18;6.65;;;4.80;;
10957;SDS011;5531;42.570;23.676;2023-02-24T04:27:50;8.57;;;4.88;;
10957;SDS011;5531;42.570;23.676;2023-02-24T04:30:21;7.25;;;4.38;;
10957;SDS011;5531;42.570;23.676;2023-02-24T04:32:52;6.70;;;4.00;;
10957;SDS011;5531;42.570;23.676;2023-02-24T04:35:21;6.00;;;4.18;;
10957;SDS011;5531;42.570;23.676;2023-02-24T04:37:53;6.25;;;3.95;;
10957;SDS011;5531;42.570;23.676;2023-02-24T04:40:26;6.55;;;3.83;;
10957;SDS011;5531;42.570;23.676;2023-02-24T04:42:55;5.55;;;4.00;;
10957;SDS011;5531;42.570;23.676;2023-02-24T04:45:25;7.68;;;4.13;;
10957;SDS011;5531;42.570;23.676;2023-02-24T04:47:56;5.93;;;4.32;;
10957;SDS011;5531;42.570;23.676;2023-02-24T04:50:28;9.90;;;4.60;;
10957;SDS011;5531;42.570;23.676;2023-02-24T04:52:58;6.93;;;4.45;;
10957;SDS011;5531;42.570;23.676;2023-02-24T04:55:34;6.75;;;4.50;;
10957;SDS011;5531;42.570;23.676;2023-02-24T04:58:04;6.97;;;4.78;;
10957;SDS011;5531;42.570;23.676;2023-02-24T05:00:34;9.27;;;4.47;;
10957;SDS011;5531;42.570;23.676;2023-02-24T05:03:06;7.13;;;4.80;;
10957;SDS011;5531;42.570;23.676;2023-02-24T05:05:38;6.70;;;4.35;;
10957;SDS011;5531;42.570;23.676;2023-02-24T05:08:08;5.43;;;3.97;;
10957;SDS011;5531;42.570;23.676;2023-02-24T05:10:43;5.32;;;3.75;;
10957;SDS011;5531;42.570;23.676;2023-02-24T05:13:14;5.90;;;4.70;;
10957;SDS011;5531;42.570;23.676;2023-02-24T05:15:44;5.40;;;4.03;;
10957;SDS011;5531;42.570;23.676;2023-02-24T05:18:15;8.38;;;4.18;;
10957;SDS011;5531;42.570;23.676;2023-02-24T05:20:45;7.65;;;4.57;;
10957;SDS011;5531;42.570;23.676;2023-02-24T05:23:29;5.88;;;4.90;;
10957;SDS011;5531;42.570;23.676;2023-02-24T05:26:03;5.45;;;4.20;;
10957;SDS011;5531;42.570;23.676;2023-02-24T05:28:34;7.60;;;4.28;;
10957;SDS011;5531;42.570;23.676;2023-02-24T05:31:05;6.25;;;4.22;;
10957;SDS011;5531;42.570;23.676;2023-02-24T05:33:35;6.00;;;4.60;;
10957;SDS011;5531;42.570;23.676;2023-02-24T05:36:07;8.57;;;4.65;;
10957;SDS011;5531;42.570;23.676;2023-02-24T05:38:40;11.43;;;8.35;;
10957;SDS011;5531;42.570;23.676;2023-02-24T05:41:12;8.27;;;5.45;;
10957;SDS011;5531;42.570;23.676;2023-02-24T05:43:43;6.13;;;4.57;;
10957;SDS011;5531;42.570;23.676;2023-02-24T05:46:17;7.07;;;5.00;;
10957;SDS011;5531;42.570;23.676;2023-02-24T05:48:52;9.48;;;4.65;;
10957;SDS011;5531;42.570;23.676;2023-02-24T05:51:23;7.88;;;4.72;;
10957;SDS011;5531;42.570;23.676;2023-02-24T05:53:59;9.95;;;5.28;;
10957;SDS011;5531;42.570;23.676;2023-02-24T05:56:32;8.43;;;5.43;;
10957;SDS011;5531;42.570;23.676;2023-02-24T05:59:03;8.95;;;5.43;;
10957;SDS011;5531;42.570;23.676;2023-02-24T06:01:35;8.18;;;5.82;;
10957;SDS011;5531;42.570;23.676;2023-02-24T06:04:06;8.57;;;5.60;;
10957;SDS011;5531;42.570;23.676;2023-02-24T06:06:45;9.75;;;5.78;;
10957;SDS011;5531;42.570;23.676;2023-02-24T06:09:17;9.10;;;5.82;;
10957;SDS011;5531;42.570;23.676;2023-02-24T06:11:50;9.45;;;6.32;;
10957;SDS011;5531;42.570;23.676;2023-02-24T06:14:19;8.77;;;6.18;;
10957;SDS011;5531;42.570;23.676;2023-02-24T06:16:48;11.13;;;6.45;;
10957;SDS011;5531;42.570;23.676;2023-02-24T06:19:17;12.60;;;6.78;;
10957;SDS011;5531;42.570;23.676;2023-02-24T06:21:46;10.55;;;6.55;;
10957;SDS011;5531;42.570;23.676;2023-02-24T06:24:16;10.35;;;5.93;;
10957;SDS011;5531;42.570;23.676;2023-02-24T06:26:45;9.45;;;5.82;;
10957;SDS011;5531;42.570;23.676;2023-02-24T06:29:20;7.68;;;5.70;;
10957;SDS011;5531;42.570;23.676;2023-02-24T06:31:53;12.07;;;7.30;;
10957;SDS011;5531;42.570;23.676;2023-02-24T06:34:23;11.88;;;6.60;;
10957;SDS011;5531;42.570;23.676;2023-02-24T06:36:53;9.90;;;5.72;;
10957;SDS011;5531;42.570;23.676;2023-02-24T06:39:22;11.45;;;5.97;;
10957;SDS011;5531;42.570;23.676;2023-02-24T06:41:51;9.70;;;5.85;;
10957;SDS011;5531;42.570;23.676;2023-02-24T06:44:24;11.25;;;7.03;;
10957;SDS011;5531;42.570;23.676;2023-02-24T06:46:53;9.25;;;6.35;;
10957;SDS011;5531;42.570;23.676;2023-02-24T06:49:22;11.68;;;6.07;;
10957;SDS011;5531;42.570;23.676;2023-02-24T06:51:52;12.88;;;6.32;;
10957;SDS011;5531;42.570;23.676;2023-02-24T06:54:22;14.43;;;6.45;;
10957;SDS011;5531;42.570;23.676;2023-02-24T06:56:53;10.75;;;6.22;;
10957;SDS011;5531;42.570;23.676;2023-02-24T06:59:25;14.68;;;7.55;;
10957;SDS011;5531;42.570;23.676;2023-02-24T07:01:56;11.07;;;6.97;;
10957;SDS011;5531;42.570;23.676;2023-02-24T07:04:27;11.02;;;6.53;;
10957;SDS011;5531;42.570;23.676;2023-02-24T07:07:07;11.77;;;7.43;;
10957;SDS011;5531;42.570;23.676;2023-02-24T07:09:38;11.90;;;7.68;;
10957;SDS011;5531;42.570;23.676;2023-02-24T07:12:09;11.43;;;7.60;;
10957;SDS011;5531;42.570;23.676;2023-02-24T07:14:47;12.98;;;7.88;;
10957;SDS011;5531;42.570;23.676;2023-02-24T07:17:17;16.55;;;8.45;;
10957;SDS011;5531;42.570;23.676;2023-02-24T07:19:47;16.23;;;9.35;;
10957;SDS011;5531;42.570;23.676;2023-02-24T07:22:18;14.10;;;9.02;;
10957;SDS011;5531;42.570;23.676;2023-02-24T07:24:49;14.23;;;8.57;;
10957;SDS011;5531;42.570;23.676;2023-02-24T07:27:24;14.73;;;8.55;;
10957;SDS011;5531;42.570;23.676;2023-02-24T07:29:57;14.23;;;8.77;;
10957;SDS011;5531;42.570;23.676;2023-02-24T07:32:30;14.60;;;8.93;;
10957;SDS011;5531;42.570;23.676;2023-02-24T07:34:59;13.65;;;8.02;;
10957;SDS011;5531;42.570;23.676;2023-02-24T07:37:28;13.88;;;8.60;;
10957;SDS011;5531;42.570;23.676;2023-02-24T07:39:59;14.27;;;8.48;;
10957;SDS011;5531;42.570;23.676;2023-02-24T07:42:29;13.38;;;8.32;;
10957;SDS011;5531;42.570;23.676;2023-02-24T07:45:02;13.65;;;8.60;;
10957;SDS011;5531;42.570;23.676;2023-02-24T07:47:32;11.38;;;8.18;;
10957;SDS011;5531;42.570;23.676;2023-02-24T07:50:01;12.80;;;7.97;;
10957;SDS011;5531;42.570;23.676;2023-02-24T07:52:35;13.90;;;7.53;;
10957;SDS011;5531;42.570;23.676;2023-02-24T07:55:04;14.65;;;8.60;;
10957;SDS011;5531;42.570;23.676;2023-02-24T07:57:34;13.25;;;8.10;;
10957;SDS011;5531;42.570;23.676;2023-02-24T08:00:09;13.45;;;7.65;;
10957;SDS011;5531;42.570;23.676;2023-02-24T08:02:43;14.85;;;8.07;;
10957;SDS011;5531;42.570;23.676;2023-02-24T08:05:13;12.20;;;7.90;;
10957;SDS011;5531;42.570;23.676;2023-02-24T08:07:42;13.48;;;8.10;;
10957;SDS011;5531;42.570;23.676;2023-02-24T08:10:14;15.38;;;8.27;;
10957;SDS011;5531;42.570;23.676;2023-02-24T08:12:51;17.83;;;8.73;;
10957;SDS011;5531;42.570;23.676;2023-02-24T08:15:29;13.05;;;8.27;;
10957;SDS011;5531;42.570;23.676;2023-02-24T08:18:00;12.88;;;8.45;;
10957;SDS011;5531;42.570;23.676;2023-02-24T08:20:30;16.42;;;9.43;;
10957;SDS011;5531;42.570;23.676;2023-02-24T08:23:17;15.73;;;9.02;;
10957;SDS011;5531;42.570;23.676;2023-02-24T08:25:47;14.60;;;8.55;;
10957;SDS011;5531;42.570;23.676;2023-02-24T08:28:18;13.68;;;7.85;;
10957;SDS011;5531;42.570;23.676;2023-02-24T08:30:53;16.25;;;8.32;;
10957;SDS011;5531;42.570;23.676;2023-02-24T08:33:23;13.73;;;8.88;;
10957;SDS011;5531;42.570;23.676;2023-02-24T08:35:54;13.20;;;8.32;;
10957;SDS011;5531;42.570;23.676;2023-02-24T08:38:26;16.25;;;9.23;;
10957;SDS011;5531;42.570;23.676;2023-02-24T08:41:04;12.50;;;8.05;;
10957;SDS011;5531;42.570;23.676;2023-02-24T08:43:41;11.93;;;8.65;;
10957;SDS011;5531;42.570;23.676;2023-02-24T08:46:17;14.63;;;9.63;;
10957;SDS011;5531;42.570;23.676;2023-02-24T08:48:51;16.83;;;9.88;;
10957;SDS011;5531;42.570;23.676;2023-02-24T08:51:25;16.58;;;10.35;;
10957;SDS011;5531;42.570;23.676;2023-02-24T08:53:59;14.85;;;10.82;;
10957;SDS011;5531;42.570;23.676;2023-02-24T08:56:35;20.05;;;12.05;;
10957;SDS011;5531;42.570;23.676;2023-02-24T08:59:08;18.85;;;11.57;;
10957;SDS011;5531;42.570;23.676;2023-02-24T09:01:57;18.88;;;11.43;;
10957;SDS011;5531;42.570;23.676;2023-02-24T09:04:38;18.63;;;12.50;;
10957;SDS011;5531;42.570;23.676;2023-02-24T09:07:11;19.27;;;12.43;;
10957;SDS011;5531;42.570;23.676;2023-02-24T09:09:42;18.58;;;12.23;;
10957;SDS011;5531;42.570;23.676;2023-02-24T09:12:12;18.50;;;11.52;;
10957;SDS011;5531;42.570;23.676;2023-02-24T09:14:46;18.10;;;11.15;;
10957;SDS011;5531;42.570;23.676;2023-02-24T09:17:23;16.92;;;11.75;;
10957;SDS011;5531;42.570;23.676;2023-02-24T09:20:07;17.27;;;11.65;;
10957;SDS011;5531;42.570;23.676;2023-02-24T09:22:50;18.52;;;10.82;;
10957;SDS011;5531;42.570;23.676;2023-02-24T09:25:28;16.85;;;10.93;;
10957;SDS011;5531;42.570;23.676;2023-02-24T09:28:14;15.90;;;11.98;;
10957;SDS011;5531;42.570;23.676;2023-02-24T09:30:45;18.45;;;12.50;;
10957;SDS011;5531;42.570;23.676;2023-02-24T09:33:24;17.02;;;11.93;;
10957;SDS011;5531;42.570;23.676;2023-02-24T09:36:03;18.55;;;11.60;;
10957;SDS011;5531;42.570;23.676;2023-02-24T09:38:37;17.75;;;12.23;;
10957;SDS011;5531;42.570;23.676;2023-02-24T09:41:25;17.35;;;11.15;;
10957;SDS011;5531;42.570;23.676;2023-02-24T09:44:19;17.52;;;11.50;;
10957;SDS011;5531;42.570;23.676;2023-02-24T09:46:59;15.60;;;10.40;;
10957;SDS011;5531;42.570;23.676;2023-02-24T09:49:41;13.80;;;9.52;;
10957;SDS011;5531;42.570;23.676;2023-02-24T09:52:15;15.48;;;9.75;;
10957;SDS011;5531;42.570;23.676;2023-02-24T09:54:47;15.57;;;9.75;;
10957;SDS011;5531;42.570;23.676;2023-02-24T09:57:30;14.05;;;8.88;;
10957;SDS011;5531;42.570;23.676;2023-02-24T10:00:19;14.85;;;9.02;;
10957;SDS011;5531;42.570;23.676;2023-02-24T10:03:00;14.68;;;9.07;;
10957;SDS011;5531;42.570;23.676;2023-02-24T10:05:47;16.90;;;9.75;;
10957;SDS011;5531;42.570;23.676;2023-02-24T10:08:26;13.18;;;9.35;;
10957;SDS011;5531;42.570;23.676;2023-02-24T10:11:02;14.55;;;9.05;;
10957;SDS011;5531;42.570;23.676;2023-02-24T10:13:37;15.35;;;10.18;;
10957;SDS011;5531;42.570;23.676;2023-02-24T10:16:15;13.68;;;9.68;;
10957;SDS011;5531;42.570;23.676;2023-02-24T10:18:49;14.52;;;9.65;;
10957;SDS011;5531;42.570;23.676;2023-02-24T10:21:29;14.57;;;9.55;;
10957;SDS011;5531;42.570;23.676;2023-02-24T10:24:26;13.50;;;8.75;;
10957;SDS011;5531;42.570;23.676;2023-02-24T10:27:01;11.65;;;8.43;;
10957;SDS011;5531;42.570;23.676;2023-02-24T10:29:49;15.02;;;9.20;;
10957;SDS011;5531;42.570;23.676;2023-02-24T10:32:31;13.60;;;10.27;;
10957;SDS011;5531;42.570;23.676;2023-02-24T10:35:07;15.80;;;10.23;;
10957;SDS011;5531;42.570;23.676;2023-02-24T10:37:43;14.55;;;11.13;;
10957;SDS011;5531;42.570;23.676;2023-02-24T10:40:14;16.98;;;11.10;;
10957;SDS011;5531;42.570;23.676;2023-02-24T10:43:01;16.45;;;11.30;;
10957;SDS011;5531;42.570;23.676;2023-02-24T10:45:36;16.25;;;11.00;;
10957;SDS011;5531;42.570;23.676;2023-02-24T10:48:14;13.82;;;10.35;;
10957;SDS011;5531;42.570;23.676;2023-02-24T10:50:49;12.57;;;9.48;;
10957;SDS011;5531;42.570;23.676;2023-02-24T10:53:23;12.45;;;9.15;;
10957;SDS011;5531;42.570;23.676;2023-02-24T10:56:00;14.27;;;10.25;;
10957;SDS011;5531;42.570;23.676;2023-02-24T10:59:01;11.32;;;8.50;;
10957;SDS011;5531;42.570;23.676;2023-02-24T11:01:50;12.98;;;9.50;;
10957;SDS011;5531;42.570;23.676;2023-02-24T11:04:31;15.15;;;10.50;;
10957;SDS011;5531;42.570;23.676;2023-02-24T11:07:21;15.32;;;9.63;;
10957;SDS011;5531;42.570;23.676;2023-02-24T11:10:11;14.60;;;10.27;;
10957;SDS011;5531;42.570;23.676;2023-02-24T11:12:51;13.77;;;9.48;;
10957;SDS011;5531;42.570;23.676;2023-02-24T11:15:35;14.10;;;10.00;;
10957;SDS011;5531;42.570;23.676;2023-02-24T11:18:18;15.57;;;10.25;;
10957;SDS011;5531;42.570;23.676;2023-02-24T11:20:53;14.38;;;10.65;;
10957;SDS011;5531;42.570;23.676;2023-02-24T11:23:26;15.05;;;10.48;;
10957;SDS011;5531;42.570;23.676;2023-02-24T11:26:02;14.27;;;10.27;;
10957;SDS011;5531;42.570;23.676;2023-02-24T11:28:54;15.23;;;9.95;;
10957;SDS011;5531;42.570;23.676;2023-02-24T11:31:36;15.98;;;10.27;;
10957;SDS011;5531;42.570;23.676;2023-02-24T11:34:20;16.30;;;10.23;;
10957;SDS011;5531;42.570;23.676;2023-02-24T11:36:58;14.48;;;10.32;;
10957;SDS011;5531;42.570;23.676;2023-02-24T11:39:44;12.90;;;9.65;;
10957;SDS011;5531;42.570;23.676;2023-02-24T11:42:24;12.80;;;9.43;;
10957;SDS011;5531;42.570;23.676;2023-02-24T11:45:00;13.75;;;9.55;;
10957;SDS011;5531;42.570;23.676;2023-02-24T11:47:35;12.82;;;9.43;;
10957;SDS011;5531;42.570;23.676;2023-02-24T11:50:18;11.65;;;9.40;;
10957;SDS011;5531;42.570;23.676;2023-02-24T11:53:04;12.52;;;9.13;;
10957;SDS011;5531;42.570;23.676;2023-02-24T11:55:42;13.30;;;10.73;;
10957;SDS011;5531;42.570;23.676;2023-02-24T11:58:16;13.52;;;10.25;;
10957;SDS011;5531;42.570;23.676;2023-02-24T12:00:52;16.00;;;11.40;;
10957;SDS011;5531;42.570;23.676;2023-02-24T12:03:29;15.98;;;11.77;;
10957;SDS011;5531;42.570;23.676;2023-02-24T12:06:07;14.05;;;10.35;;
10957;SDS011;5531;42.570;23.676;2023-02-24T12:08:42;16.52;;;12.05;;
10957;SDS011;5531;42.570;23.676;2023-02-24T12:11:15;12.68;;;9.50;;
10957;SDS011;5531;42.570;23.676;2023-02-24T12:13:55;14.90;;;10.45;;
10957;SDS011;5531;42.570;23.676;2023-02-24T12:16:34;15.02;;;9.82;;
10957;SDS011;5531;42.570;23.676;2023-02-24T12:19:12;12.60;;;8.82;;
10957;SDS011;5531;42.570;23.676;2023-02-24T12:21:47;13.43;;;9.32;;
10957;SDS011;5531;42.570;23.676;2023-02-24T12:24:19;12.40;;;9.27;;
10957;SDS011;5531;42.570;23.676;2023-02-24T12:26:52;10.38;;;8.82;;
10957;SDS011;5531;42.570;23.676;2023-02-24T12:29:39;10.63;;;8.57;;
10957;SDS011;5531;42.570;23.676;2023-02-24T12:32:22;9.55;;;7.85;;
10957;SDS011;5531;42.570;23.676;2023-02-24T12:35:01;10.25;;;8.65;;
10957;SDS011;5531;42.570;23.676;2023-02-24T12:37:44;10.40;;;8.38;;
10957;SDS011;5531;42.570;23.676;2023-02-24T12:40:23;10.05;;;8.38;;
10957;SDS011;5531;42.570;23.676;2023-02-24T12:43:00;11.18;;;8.82;;
10957;SDS011;5531;42.570;23.676;2023-02-24T12:45:45;14.32;;;9.85;;
10957;SDS011;5531;42.570;23.676;2023-02-24T12:48:26;12.75;;;9.70;;
10957;SDS011;5531;42.570;23.676;2023-02-24T12:51:05;14.60;;;9.38;;
10957;SDS011;5531;42.570;23.676;2023-02-24T12:53:39;10.35;;;8.60;;
10957;SDS011;5531;42.570;23.676;2023-02-24T12:56:14;12.98;;;8.55;;
10957;SDS011;5531;42.570;23.676;2023-02-24T12:58:49;10.63;;;8.70;;
10957;SDS011;5531;42.570;23.676;2023-02-24T13:01:25;11.05;;;9.10;;
10957;SDS011;5531;42.570;23.676;2023-02-24T13:04:12;10.75;;;8.00;;
10957;SDS011;5531;42.570;23.676;2023-02-24T13:06:59;10.38;;;8.40;;
10957;SDS011;5531;42.570;23.676;2023-02-24T13:09:39;11.80;;;9.30;;
10957;SDS011;5531;42.570;23.676;2023-02-24T13:12:15;12.10;;;9.25;;
10957;SDS011;5531;42.570;23.676;2023-02-24T13:14:51;12.40;;;9.23;;
10957;SDS011;5531;42.570;23.676;2023-02-24T13:17:24;11.82;;;9.43;;
10957;SDS011;5531;42.570;23.676;2023-02-24T13:19:54;15.27;;;10.20;;
10957;SDS011;5531;42.570;23.676;2023-02-24T13:22:27;12.90;;;10.45;;
10957;SDS011;5531;42.570;23.676;2023-02-24T13:25:11;12.10;;;10.00;;
10957;SDS011;5531;42.570;23.676;2023-02-24T13:27:55;18.85;;;10.82;;
10957;SDS011;5531;42.570;23.676;2023-02-24T13:30:33;12.50;;;10.57;;
10957;SDS011;5531;42.570;23.676;2023-02-24T13:33:21;14.30;;;11.07;;
10957;SDS011;5531;42.570;23.676;2023-02-24T13:36:06;15.25;;;11.15;;
10957;SDS011;5531;42.570;23.676;2023-02-24T13:38:38;13.25;;;11.02;;
10957;SDS011;5531;42.570;23.676;2023-02-24T13:44:23;17.00;;;11.38;;
10957;SDS011;5531;42.570;23.676;2023-02-24T13:49:57;16.40;;;11.23;;
10957;SDS011;5531;42.570;23.676;2023-02-24T13:52:41;15.43;;;11.70;;
10957;SDS011;5531;42.570;23.676;2023-02-24T13:55:24;16.17;;;12.30;;
10957;SDS011;5531;42.570;23.676;2023-02-24T14:01:06;14.13;;;11.52;;
10957;SDS011;5531;42.570;23.676;2023-02-24T14:03:38;14.88;;;11.38;;
10957;SDS011;5531;42.570;23.676;2023-02-24T14:06:16;14.93;;;11.35;;
10957;SDS011;5531;42.570;23.676;2023-02-24T14:08:52;15.82;;;11.38;;
10957;SDS011;5531;42.570;23.676;2023-02-24T14:11:24;14.20;;;11.10;;
10957;SDS011;5531;42.570;23.676;2023-02-24T14:13:56;13.88;;;11.25;;
10957;SDS011;5531;42.570;23.676;2023-02-24T14:16:27;14.65;;;11.80;;
10957;SDS011;5531;42.570;23.676;2023-02-24T14:19:00;15.38;;;12.15;;
10957;SDS011;5531;42.570;23.676;2023-02-24T14:21:33;15.50;;;12.40;;
10957;SDS011;5531;42.570;23.676;2023-02-24T14:24:03;14.77;;;11.30;;
10957;SDS011;5531;42.570;23.676;2023-02-24T14:26:40;15.68;;;12.35;;
10957;SDS011;5531;42.570;23.676;2023-02-24T14:29:12;17.38;;;12.63;;
10957;SDS011;5531;42.570;23.676;2023-02-24T14:31:48;20.55;;;12.98;;
10957;SDS011;5531;42.570;23.676;2023-02-24T14:34:20;17.98;;;13.27;;
10957;SDS011;5531;42.570;23.676;2023-02-24T14:36:54;17.45;;;13.52;;
10957;SDS011;5531;42.570;23.676;2023-02-24T14:39:25;18.55;;;13.32;;
10957;SDS011;5531;42.570;23.676;2023-02-24T14:42:02;18.20;;;13.70;;
10957;SDS011;5531;42.570;23.676;2023-02-24T14:44:39;17.13;;;13.35;;
10957;SDS011;5531;42.570;23.676;2023-02-24T14:47:10;18.85;;;14.00;;
10957;SDS011;5531;42.570;23.676;2023-02-24T14:49:49;18.42;;;13.52;;
10957;SDS011;5531;42.570;23.676;2023-02-24T14:52:25;17.77;;;13.65;;
10957;SDS011;5531;42.570;23.676;2023-02-24T14:55:00;18.75;;;13.35;;
10957;SDS011;5531;42.570;23.676;2023-02-24T14:57:33;16.85;;;13.10;;
10957;SDS011;5531;42.570;23.676;2023-02-24T15:00:07;18.45;;;13.25;;
10957;SDS011;5531;42.570;23.676;2023-02-24T15:02:47;18.55;;;13.77;;
10957;SDS011;5531;42.570;23.676;2023-02-24T15:05:21;19.67;;;13.65;;
10957;SDS011;5531;42.570;23.676;2023-02-24T15:07:54;18.38;;;12.90;;
10957;SDS011;5531;42.570;23.676;2023-02-24T15:10:23;18.27;;;13.82;;
10957;SDS011;5531;42.570;23.676;2023-02-24T15:12:57;22.35;;;13.57;;
10957;SDS011;5531;42.570;23.676;2023-02-24T15:15:35;20.33;;;13.52;;
10957;SDS011;5531;42.570;23.676;2023-02-24T15:18:09;19.85;;;13.82;;
10957;SDS011;5531;42.570;23.676;2023-02-24T15:20:45;17.67;;;13.40;;
10957;SDS011;5531;42.570;23.676;2023-02-24T15:23:27;17.95;;;13.85;;
10957;SDS011;5531;42.570;23.676;2023-02-24T15:25:59;20.38;;;14.50;;
10957;SDS011;5531;42.570;23.676;2023-02-24T15:28:29;17.48;;;13.15;;
10957;SDS011;5531;42.570;23.676;2023-02-24T15:31:00;19.27;;;14.15;;
10957;SDS011;5531;42.570;23.676;2023-02-24T15:33:33;19.98;;;14.55;;
10957;SDS011;5531;42.570;23.676;2023-02-24T15:36:06;19.08;;;14.50;;